sensor_id;sensor_type;location;lat;lon;timestamp;temperature;humidity
18297;DHT22;18066;52.106;5.534;2023-06-10T00:01:28;20.90;99.90
18297;DHT22;18066;52.106;5.534;2023-06-10T00:03:55;21.10;99.90
18297;DHT22;18066;52.106;5.534;2023-06-10T00:06:24;21.40;99.90
18297;DHT22;18066;52.106;5.534;2023-06-10T00:08:51;21.30;99.90
18297;DHT22;18066;52.106;5.534;2023-06-10T00:11:17;20.90;99.90
18297;DHT22;18066;52.106;5.534;2023-06-10T00:13:44;20.70;99.90
18297;DHT22;18066;52.106;5.534;2023-06-10T00:16:11;21.00;99.90
18297;DHT22;18066;52.106;5.534;2023-06-10T00:18:38;21.00;99.90
18297;DHT22;18066;52.106;5.534;2023-06-10T00:21:05;20.90;99.90
18297;DHT22;18066;52.106;5.534;2023-06-10T00:23:33;21.20;99.90
18297;DHT22;18066;52.106;5.534;2023-06-10T00:26:03;21.50;99.90
18297;DHT22;18066;52.106;5.534;2023-06-10T00:28:30;21.10;99.90
18297;DHT22;18066;52.106;5.534;2023-06-10T00:30:57;20.80;99.90
18297;DHT22;18066;52.106;5.534;2023-06-10T00:33:24;21.00;99.90
18297;DHT22;18066;52.106;5.534;2023-06-10T00:35:50;20.70;99.90
18297;DHT22;18066;52.106;5.534;2023-06-10T00:38:17;20.80;99.90
18297;DHT22;18066;52.106;5.534;2023-06-10T00:40:46;21.10;99.90
18297;DHT22;18066;52.106;5.534;2023-06-10T00:43:13;21.20;99.90
18297;DHT22;18066;52.106;5.534;2023-06-10T00:45:39;20.60;99.90
18297;DHT22;18066;52.106;5.534;2023-06-10T00:48:06;20.50;99.90
18297;DHT22;18066;52.106;5.534;2023-06-10T00:50:33;20.90;99.90
18297;DHT22;18066;52.106;5.534;2023-06-10T00:53:05;20.80;99.90
18297;DHT22;18066;52.106;5.534;2023-06-10T00:55:32;20.60;99.90
18297;DHT22;18066;52.106;5.534;2023-06-10T00:58:00;20.50;99.90
18297;DHT22;18066;52.106;5.534;2023-06-10T01:00:27;20.60;99.90
18297;DHT22;18066;52.106;5.534;2023-06-10T01:02:54;21.40;99.90
18297;DHT22;18066;52.106;5.534;2023-06-10T01:05:21;21.00;99.90
18297;DHT22;18066;52.106;5.534;2023-06-10T01:07:53;21.10;99.90
18297;DHT22;18066;52.106;5.534;2023-06-10T01:10:27;20.30;99.90
18297;DHT22;18066;52.106;5.534;2023-06-10T01:13:00;20.70;99.90
18297;DHT22;18066;52.106;5.534;2023-06-10T01:15:29;20.90;99.90
18297;DHT22;18066;52.106;5.534;2023-06-10T01:17:57;20.20;99.90
18297;DHT22;18066;52.106;5.534;2023-06-10T01:20:25;20.20;99.90
18297;DHT22;18066;52.106;5.534;2023-06-10T01:22:54;20.40;99.90
18297;DHT22;18066;52.106;5.534;2023-06-10T01:25:23;20.40;99.90
18297;DHT22;18066;52.106;5.534;2023-06-10T01:27:55;20.20;99.90
18297;DHT22;18066;52.106;5.534;2023-06-10T01:30:28;20.00;99.90
18297;DHT22;18066;52.106;5.534;2023-06-10T01:32:58;20.10;99.90
18297;DHT22;18066;52.106;5.534;2023-06-10T01:35:27;19.90;99.90
18297;DHT22;18066;52.106;5.534;2023-06-10T01:37:58;20.00;99.90
18297;DHT22;18066;52.106;5.534;2023-06-10T01:40:26;20.00;99.90
18297;DHT22;18066;52.106;5.534;2023-06-10T01:42:54;19.80;99.90
18297;DHT22;18066;52.106;5.534;2023-06-10T01:45:21;19.70;99.90
18297;DHT22;18066;52.106;5.534;2023-06-10T01:47:48;20.00;99.90
18297;DHT22;18066;52.106;5.534;2023-06-10T01:50:14;19.90;99.90
18297;DHT22;18066;52.106;5.534;2023-06-10T01:52:42;19.80;99.90
18297;DHT22;18066;52.106;5.534;2023-06-10T01:55:10;19.70;99.90
18297;DHT22;18066;52.106;5.534;2023-06-10T01:57:37;19.90;99.90
18297;DHT22;18066;52.106;5.534;2023-06-10T02:00:04;20.20;99.90
18297;DHT22;18066;52.106;5.534;2023-06-10T02:02:31;19.60;99.90
18297;DHT22;18066;52.106;5.534;2023-06-10T02:04:58;19.60;99.90
18297;DHT22;18066;52.106;5.534;2023-06-10T02:07:25;19.60;99.90
18297;DHT22;18066;52.106;5.534;2023-06-10T02:09:52;19.50;99.90
18297;DHT22;18066;52.106;5.534;2023-06-10T02:12:20;19.50;99.90
18297;DHT22;18066;52.106;5.534;2023-06-10T02:14:47;19.90;99.90
18297;DHT22;18066;52.106;5.534;2023-06-10T02:17:14;19.60;99.90
18297;DHT22;18066;52.106;5.534;2023-06-10T02:19:41;19.40;99.90
18297;DHT22;18066;52.106;5.534;2023-06-10T02:22:08;19.50;99.90
18297;DHT22;18066;52.106;5.534;2023-06-10T02:24:36;19.40;99.90
18297;DHT22;18066;52.106;5.534;2023-06-10T02:27:04;19.40;99.90
18297;DHT22;18066;52.106;5.534;2023-06-10T02:29:34;19.20;99.90
18297;DHT22;18066;52.106;5.534;2023-06-10T02:32:02;19.20;99.90
18297;DHT22;18066;52.106;5.534;2023-06-10T02:34:29;19.30;99.90
18297;DHT22;18066;52.106;5.534;2023-06-10T02:36:56;19.40;99.90
18297;DHT22;18066;52.106;5.534;2023-06-10T02:39:23;19.30;99.90
18297;DHT22;18066;52.106;5.534;2023-06-10T02:41:50;19.70;99.90
18297;DHT22;18066;52.106;5.534;2023-06-10T02:44:18;19.60;99.90
18297;DHT22;18066;52.106;5.534;2023-06-10T02:46:46;20.20;99.90
18297;DHT22;18066;52.106;5.534;2023-06-10T02:49:13;19.70;99.90
18297;DHT22;18066;52.106;5.534;2023-06-10T02:51:40;19.30;99.90
18297;DHT22;18066;52.106;5.534;2023-06-10T02:54:07;19.10;99.90
18297;DHT22;18066;52.106;5.534;2023-06-10T02:56:33;19.20;99.90
18297;DHT22;18066;52.106;5.534;2023-06-10T02:59:00;19.20;99.90
18297;DHT22;18066;52.106;5.534;2023-06-10T03:01:27;19.20;99.90
18297;DHT22;18066;52.106;5.534;2023-06-10T03:03:55;19.20;99.90
18297;DHT22;18066;52.106;5.534;2023-06-10T03:06:22;19.70;99.90
18297;DHT22;18066;52.106;5.534;2023-06-10T03:08:51;19.90;99.90
18297;DHT22;18066;52.106;5.534;2023-06-10T03:11:18;19.80;99.90
18297;DHT22;18066;52.106;5.534;2023-06-10T03:13:45;19.50;99.90
18297;DHT22;18066;52.106;5.534;2023-06-10T03:16:12;19.40;99.90
18297;DHT22;18066;52.106;5.534;2023-06-10T03:18:39;19.80;99.90
18297;DHT22;18066;52.106;5.534;2023-06-10T03:21:08;19.70;99.90
18297;DHT22;18066;52.106;5.534;2023-06-10T03:23:35;19.10;99.90
18297;DHT22;18066;52.106;5.534;2023-06-10T03:26:02;18.80;99.90
18297;DHT22;18066;52.106;5.534;2023-06-10T03:28:30;18.80;99.90
18297;DHT22;18066;52.106;5.534;2023-06-10T03:30:57;18.80;99.90
18297;DHT22;18066;52.106;5.534;2023-06-10T03:33:24;18.60;99.90
18297;DHT22;18066;52.106;5.534;2023-06-10T03:35:51;19.00;99.90
18297;DHT22;18066;52.106;5.534;2023-06-10T03:38:19;18.90;99.90
18297;DHT22;18066;52.106;5.534;2023-06-10T03:40:47;18.90;99.90
18297;DHT22;18066;52.106;5.534;2023-06-10T03:43:13;18.50;99.90
18297;DHT22;18066;52.106;5.534;2023-06-10T03:45:40;18.80;99.90
18297;DHT22;18066;52.106;5.534;2023-06-10T03:48:07;18.70;99.90
18297;DHT22;18066;52.106;5.534;2023-06-10T03:50:34;19.00;99.90
18297;DHT22;18066;52.106;5.534;2023-06-10T03:53:02;18.70;99.90
18297;DHT22;18066;52.106;5.534;2023-06-10T03:55:30;18.60;99.90
18297;DHT22;18066;52.106;5.534;2023-06-10T03:57:57;18.70;99.90
18297;DHT22;18066;52.106;5.534;2023-06-10T04:00:23;19.30;99.90
18297;DHT22;18066;52.106;5.534;2023-06-10T04:02:50;19.00;99.90
18297;DHT22;18066;52.106;5.534;2023-06-10T04:05:19;18.90;99.90
18297;DHT22;18066;52.106;5.534;2023-06-10T04:07:47;18.60;99.90
18297;DHT22;18066;52.106;5.534;2023-06-10T04:10:14;18.80;99.90
18297;DHT22;18066;52.106;5.534;2023-06-10T04:12:43;18.70;99.90
18297;DHT22;18066;52.106;5.534;2023-06-10T04:15:10;19.00;99.90
18297;DHT22;18066;52.106;5.534;2023-06-10T04:17:38;18.70;99.90
18297;DHT22;18066;52.106;5.534;2023-06-10T04:20:07;18.90;99.90
18297;DHT22;18066;52.106;5.534;2023-06-10T04:22:35;18.70;99.90
18297;DHT22;18066;52.106;5.534;2023-06-10T04:25:02;18.90;99.90
18297;DHT22;18066;52.106;5.534;2023-06-10T04:27:29;18.70;99.90
18297;DHT22;18066;52.106;5.534;2023-06-10T04:29:57;18.90;99.90
18297;DHT22;18066;52.106;5.534;2023-06-10T04:32:24;18.80;99.90
18297;DHT22;18066;52.106;5.534;2023-06-10T04:34:52;19.20;99.90
18297;DHT22;18066;52.106;5.534;2023-06-10T04:37:18;19.00;99.90
18297;DHT22;18066;52.106;5.534;2023-06-10T04:39:45;18.80;99.90
18297;DHT22;18066;52.106;5.534;2023-06-10T04:42:12;18.80;99.90
18297;DHT22;18066;52.106;5.534;2023-06-10T04:44:39;18.90;99.90
18297;DHT22;18066;52.106;5.534;2023-06-10T04:47:07;19.10;99.90
18297;DHT22;18066;52.106;5.534;2023-06-10T04:49:34;19.10;99.90
18297;DHT22;18066;52.106;5.534;2023-06-10T04:52:01;19.30;99.90
18297;DHT22;18066;52.106;5.534;2023-06-10T04:54:29;19.10;99.90
18297;DHT22;18066;52.106;5.534;2023-06-10T04:56:56;19.10;99.90
18297;DHT22;18066;52.106;5.534;2023-06-10T04:59:23;19.30;99.90
18297;DHT22;18066;52.106;5.534;2023-06-10T05:01:50;19.10;99.90
18297;DHT22;18066;52.106;5.534;2023-06-10T05:04:18;19.20;99.90
18297;DHT22;18066;52.106;5.534;2023-06-10T05:06:45;20.30;99.90
18297;DHT22;18066;52.106;5.534;2023-06-10T05:09:12;19.60;99.90
18297;DHT22;18066;52.106;5.534;2023-06-10T05:11:38;19.50;99.90
18297;DHT22;18066;52.106;5.534;2023-06-10T05:14:05;19.70;99.90
18297;DHT22;18066;52.106;5.534;2023-06-10T05:16:32;19.80;99.90
18297;DHT22;18066;52.106;5.534;2023-06-10T05:18:59;19.70;99.90
18297;DHT22;18066;52.106;5.534;2023-06-10T05:21:27;20.10;99.90
18297;DHT22;18066;52.106;5.534;2023-06-10T05:23:54;19.90;99.90
18297;DHT22;18066;52.106;5.534;2023-06-10T05:26:21;19.90;99.90
18297;DHT22;18066;52.106;5.534;2023-06-10T05:28:48;19.90;99.90
18297;DHT22;18066;52.106;5.534;2023-06-10T05:31:15;20.00;99.90
18297;DHT22;18066;52.106;5.534;2023-06-10T05:33:41;20.40;99.90
18297;DHT22;18066;52.106;5.534;2023-06-10T05:36:08;20.00;99.90
18297;DHT22;18066;52.106;5.534;2023-06-10T05:38:36;20.50;99.90
18297;DHT22;18066;52.106;5.534;2023-06-10T05:41:03;20.30;99.90
18297;DHT22;18066;52.106;5.534;2023-06-10T05:43:30;20.80;99.90
18297;DHT22;18066;52.106;5.534;2023-06-10T05:45:57;20.60;99.90
18297;DHT22;18066;52.106;5.534;2023-06-10T05:48:24;20.70;99.90
18297;DHT22;18066;52.106;5.534;2023-06-10T05:50:51;20.80;99.90
18297;DHT22;18066;52.106;5.534;2023-06-10T05:53:18;20.70;99.90
18297;DHT22;18066;52.106;5.534;2023-06-10T05:55:46;20.80;99.90
18297;DHT22;18066;52.106;5.534;2023-06-10T05:58:13;20.80;99.90
18297;DHT22;18066;52.106;5.534;2023-06-10T06:00:41;22.00;99.90
18297;DHT22;18066;52.106;5.534;2023-06-10T06:03:08;21.00;99.90
18297;DHT22;18066;52.106;5.534;2023-06-10T06:05:35;21.30;99.90
18297;DHT22;18066;52.106;5.534;2023-06-10T06:08:03;21.10;99.90
18297;DHT22;18066;52.106;5.534;2023-06-10T06:10:30;21.20;99.90
18297;DHT22;18066;52.106;5.534;2023-06-10T06:12:59;21.20;99.90
18297;DHT22;18066;52.106;5.534;2023-06-10T06:15:26;21.80;99.90
18297;DHT22;18066;52.106;5.534;2023-06-10T06:17:53;21.30;99.90
18297;DHT22;18066;52.106;5.534;2023-06-10T06:20:21;21.30;99.90
18297;DHT22;18066;52.106;5.534;2023-06-10T06:22:48;21.70;99.90
18297;DHT22;18066;52.106;5.534;2023-06-10T06:25:15;21.60;99.90
18297;DHT22;18066;52.106;5.534;2023-06-10T06:27:42;21.70;99.90
18297;DHT22;18066;52.106;5.534;2023-06-10T06:30:11;21.80;99.90
18297;DHT22;18066;52.106;5.534;2023-06-10T06:32:38;21.80;99.90
18297;DHT22;18066;52.106;5.534;2023-06-10T06:35:05;21.80;99.90
18297;DHT22;18066;52.106;5.534;2023-06-10T06:37:33;22.00;99.90
18297;DHT22;18066;52.106;5.534;2023-06-10T06:40:00;22.20;99.90
18297;DHT22;18066;52.106;5.534;2023-06-10T06:42:27;22.70;99.90
18297;DHT22;18066;52.106;5.534;2023-06-10T06:44:54;22.20;99.90
18297;DHT22;18066;52.106;5.534;2023-06-10T06:47:22;22.60;99.90
18297;DHT22;18066;52.106;5.534;2023-06-10T06:49:49;22.50;99.90
18297;DHT22;18066;52.106;5.534;2023-06-10T06:52:16;22.50;99.90
18297;DHT22;18066;52.106;5.534;2023-06-10T06:54:43;23.10;99.90
18297;DHT22;18066;52.106;5.534;2023-06-10T06:57:09;23.00;99.90
18297;DHT22;18066;52.106;5.534;2023-06-10T06:59:36;22.70;99.90
18297;DHT22;18066;52.106;5.534;2023-06-10T07:02:03;23.70;99.90
18297;DHT22;18066;52.106;5.534;2023-06-10T07:04:32;22.90;99.90
18297;DHT22;18066;52.106;5.534;2023-06-10T07:06:59;23.30;99.90
18297;DHT22;18066;52.106;5.534;2023-06-10T07:09:26;23.20;99.90
18297;DHT22;18066;52.106;5.534;2023-06-10T07:11:53;23.40;99.90
18297;DHT22;18066;52.106;5.534;2023-06-10T07:14:20;23.60;99.90
18297;DHT22;18066;52.106;5.534;2023-06-10T07:16:47;24.40;99.90
18297;DHT22;18066;52.106;5.534;2023-06-10T07:19:15;23.70;99.90
18297;DHT22;18066;52.106;5.534;2023-06-10T07:21:43;23.80;99.90
18297;DHT22;18066;52.106;5.534;2023-06-10T07:24:10;23.80;99.90
18297;DHT22;18066;52.106;5.534;2023-06-10T07:26:37;24.40;99.90
18297;DHT22;18066;52.106;5.534;2023-06-10T07:29:04;24.20;99.90
18297;DHT22;18066;52.106;5.534;2023-06-10T07:31:30;24.50;99.90
18297;DHT22;18066;52.106;5.534;2023-06-10T07:33:58;24.50;99.90
18297;DHT22;18066;52.106;5.534;2023-06-10T07:36:26;24.80;99.90
18297;DHT22;18066;52.106;5.534;2023-06-10T07:38:55;24.90;99.90
18297;DHT22;18066;52.106;5.534;2023-06-10T07:41:22;25.50;99.90
18297;DHT22;18066;52.106;5.534;2023-06-10T07:43:51;24.60;99.90
18297;DHT22;18066;52.106;5.534;2023-06-10T07:46:20;24.70;99.90
18297;DHT22;18066;52.106;5.534;2023-06-10T07:48:47;24.80;99.90
18297;DHT22;18066;52.106;5.534;2023-06-10T07:51:15;24.90;99.90
18297;DHT22;18066;52.106;5.534;2023-06-10T07:53:42;25.30;99.90
18297;DHT22;18066;52.106;5.534;2023-06-10T07:56:11;25.50;99.90
18297;DHT22;18066;52.106;5.534;2023-06-10T07:58:38;25.80;99.90
18297;DHT22;18066;52.106;5.534;2023-06-10T08:01:05;25.70;99.90
18297;DHT22;18066;52.106;5.534;2023-06-10T08:03:32;26.20;99.90
18297;DHT22;18066;52.106;5.534;2023-06-10T08:05:59;25.90;99.90
18297;DHT22;18066;52.106;5.534;2023-06-10T08:08:26;26.00;99.90
18297;DHT22;18066;52.106;5.534;2023-06-10T08:10:53;26.20;99.90
18297;DHT22;18066;52.106;5.534;2023-06-10T08:13:22;26.10;99.90
18297;DHT22;18066;52.106;5.534;2023-06-10T08:15:49;26.10;99.90
18297;DHT22;18066;52.106;5.534;2023-06-10T08:18:16;26.30;99.90
18297;DHT22;18066;52.106;5.534;2023-06-10T08:20:43;26.10;99.90
18297;DHT22;18066;52.106;5.534;2023-06-10T08:23:10;26.60;99.90
18297;DHT22;18066;52.106;5.534;2023-06-10T08:25:37;26.40;99.90
18297;DHT22;18066;52.106;5.534;2023-06-10T08:28:04;25.30;99.90
18297;DHT22;18066;52.106;5.534;2023-06-10T08:30:32;27.30;99.90
18297;DHT22;18066;52.106;5.534;2023-06-10T08:33:00;27.00;99.90
18297;DHT22;18066;52.106;5.534;2023-06-10T08:35:27;26.80;99.90
18297;DHT22;18066;52.106;5.534;2023-06-10T08:37:53;26.90;99.90
18297;DHT22;18066;52.106;5.534;2023-06-10T08:40:20;27.00;99.90
18297;DHT22;18066;52.106;5.534;2023-06-10T08:42:52;26.90;99.90
18297;DHT22;18066;52.106;5.534;2023-06-10T08:45:22;26.80;99.90
18297;DHT22;18066;52.106;5.534;2023-06-10T08:47:52;26.80;99.90
18297;DHT22;18066;52.106;5.534;2023-06-10T08:50:21;27.20;99.90
18297;DHT22;18066;52.106;5.534;2023-06-10T08:52:50;27.60;99.90
18297;DHT22;18066;52.106;5.534;2023-06-10T08:55:18;27.50;99.90
18297;DHT22;18066;52.106;5.534;2023-06-10T08:57:51;27.50;99.90
18297;DHT22;18066;52.106;5.534;2023-06-10T09:00:19;27.10;99.90
18297;DHT22;18066;52.106;5.534;2023-06-10T09:02:46;27.20;99.90
18297;DHT22;18066;52.106;5.534;2023-06-10T09:05:15;27.50;99.90
18297;DHT22;18066;52.106;5.534;2023-06-10T09:07:43;27.50;99.90
18297;DHT22;18066;52.106;5.534;2023-06-10T09:10:11;27.30;99.90
18297;DHT22;18066;52.106;5.534;2023-06-10T09:12:38;27.30;99.90
18297;DHT22;18066;52.106;5.534;2023-06-10T09:15:06;27.50;99.90
18297;DHT22;18066;52.106;5.534;2023-06-10T09:17:34;27.50;99.90
18297;DHT22;18066;52.106;5.534;2023-06-10T09:20:02;27.80;99.90
18297;DHT22;18066;52.106;5.534;2023-06-10T09:22:30;27.80;99.90
18297;DHT22;18066;52.106;5.534;2023-06-10T09:25:04;28.30;99.90
18297;DHT22;18066;52.106;5.534;2023-06-10T09:27:32;28.00;99.90
18297;DHT22;18066;52.106;5.534;2023-06-10T09:30:11;27.90;99.90
18297;DHT22;18066;52.106;5.534;2023-06-10T09:32:50;28.00;99.90
18297;DHT22;18066;52.106;5.534;2023-06-10T09:35:16;28.20;99.90
18297;DHT22;18066;52.106;5.534;2023-06-10T09:37:45;28.10;99.90
18297;DHT22;18066;52.106;5.534;2023-06-10T09:40:12;28.60;99.90
18297;DHT22;18066;52.106;5.534;2023-06-10T09:42:39;28.00;99.90
18297;DHT22;18066;52.106;5.534;2023-06-10T09:45:07;28.00;99.90
18297;DHT22;18066;52.106;5.534;2023-06-10T09:47:34;27.90;99.90
18297;DHT22;18066;52.106;5.534;2023-06-10T09:50:01;29.00;99.90
18297;DHT22;18066;52.106;5.534;2023-06-10T09:52:29;28.60;99.90
18297;DHT22;18066;52.106;5.534;2023-06-10T09:55:01;28.60;99.90
18297;DHT22;18066;52.106;5.534;2023-06-10T09:57:31;28.80;99.90
18297;DHT22;18066;52.106;5.534;2023-06-10T09:59:59;29.10;99.90
18297;DHT22;18066;52.106;5.534;2023-06-10T10:02:30;29.30;99.90
18297;DHT22;18066;52.106;5.534;2023-06-10T10:05:02;28.90;99.90
18297;DHT22;18066;52.106;5.534;2023-06-10T10:07:29;28.80;99.90
18297;DHT22;18066;52.106;5.534;2023-06-10T10:09:57;29.00;99.90
18297;DHT22;18066;52.106;5.534;2023-06-10T10:12:26;28.90;99.90
18297;DHT22;18066;52.106;5.534;2023-06-10T10:14:54;29.50;99.90
18297;DHT22;18066;52.106;5.534;2023-06-10T10:17:23;29.50;99.90
18297;DHT22;18066;52.106;5.534;2023-06-10T10:19:53;29.40;99.90
18297;DHT22;18066;52.106;5.534;2023-06-10T10:22:26;29.10;99.90
18297;DHT22;18066;52.106;5.534;2023-06-10T10:24:56;28.90;99.90
18297;DHT22;18066;52.106;5.534;2023-06-10T10:27:27;29.00;99.90
18297;DHT22;18066;52.106;5.534;2023-06-10T10:29:57;28.80;99.90
18297;DHT22;18066;52.106;5.534;2023-06-10T10:32:31;29.10;99.90
18297;DHT22;18066;52.106;5.534;2023-06-10T10:35:07;29.10;99.90
18297;DHT22;18066;52.106;5.534;2023-06-10T10:37:35;29.30;99.90
18297;DHT22;18066;52.106;5.534;2023-06-10T10:40:02;29.30;99.90
18297;DHT22;18066;52.106;5.534;2023-06-10T10:42:32;29.20;99.90
18297;DHT22;18066;52.106;5.534;2023-06-10T10:44:59;29.50;99.90
18297;DHT22;18066;52.106;5.534;2023-06-10T10:47:27;29.60;99.90
18297;DHT22;18066;52.106;5.534;2023-06-10T10:49:55;29.80;99.90
18297;DHT22;18066;52.106;5.534;2023-06-10T10:52:24;29.90;99.90
18297;DHT22;18066;52.106;5.534;2023-06-10T10:54:53;28.60;99.90
18297;DHT22;18066;52.106;5.534;2023-06-10T10:57:21;29.50;99.90
18297;DHT22;18066;52.106;5.534;2023-06-10T10:59:54;29.60;99.90
18297;DHT22;18066;52.106;5.534;2023-06-10T11:02:36;29.90;99.90
18297;DHT22;18066;52.106;5.534;2023-06-10T11:05:06;30.20;99.90
18297;DHT22;18066;52.106;5.534;2023-06-10T11:07:34;29.90;99.90
18297;DHT22;18066;52.106;5.534;2023-06-10T11:10:04;30.00;99.90
18297;DHT22;18066;52.106;5.534;2023-06-10T11:12:49;30.20;99.90
18297;DHT22;18066;52.106;5.534;2023-06-10T11:15:20;30.30;99.90
18297;DHT22;18066;52.106;5.534;2023-06-10T11:18:20;30.90;99.90
18297;DHT22;18066;52.106;5.534;2023-06-10T11:20:55;30.00;99.90
18297;DHT22;18066;52.106;5.534;2023-06-10T11:23:34;30.00;99.90
18297;DHT22;18066;52.106;5.534;2023-06-10T11:26:21;30.20;99.90
18297;DHT22;18066;52.106;5.534;2023-06-10T11:29:08;30.10;99.90
18297;DHT22;18066;52.106;5.534;2023-06-10T11:31:51;30.30;99.90
18297;DHT22;18066;52.106;5.534;2023-06-10T11:34:22;30.30;99.90
18297;DHT22;18066;52.106;5.534;2023-06-10T11:36:51;30.40;99.90
18297;DHT22;18066;52.106;5.534;2023-06-10T11:39:20;30.20;99.90
18297;DHT22;18066;52.106;5.534;2023-06-10T11:41:49;30.20;99.90
18297;DHT22;18066;52.106;5.534;2023-06-10T11:44:17;30.30;99.90
18297;DHT22;18066;52.106;5.534;2023-06-10T11:46:47;30.30;99.90
18297;DHT22;18066;52.106;5.534;2023-06-10T11:49:14;30.40;99.90
18297;DHT22;18066;52.106;5.534;2023-06-10T11:51:41;30.60;99.90
18297;DHT22;18066;52.106;5.534;2023-06-10T11:54:14;30.60;99.90
18297;DHT22;18066;52.106;5.534;2023-06-10T11:56:42;30.70;99.90
18297;DHT22;18066;52.106;5.534;2023-06-10T11:59:09;31.00;99.90
18297;DHT22;18066;52.106;5.534;2023-06-10T12:01:37;30.80;99.90
18297;DHT22;18066;52.106;5.534;2023-06-10T12:04:08;31.00;99.90
18297;DHT22;18066;52.106;5.534;2023-06-10T12:06:42;30.80;99.90
18297;DHT22;18066;52.106;5.534;2023-06-10T12:09:20;30.80;99.90
18297;DHT22;18066;52.106;5.534;2023-06-10T12:11:49;30.90;99.90
18297;DHT22;18066;52.106;5.534;2023-06-10T12:16:58;31.00;99.90
18297;DHT22;18066;52.106;5.534;2023-06-10T12:19:26;30.80;99.90
18297;DHT22;18066;52.106;5.534;2023-06-10T12:21:53;30.80;99.90
18297;DHT22;18066;52.106;5.534;2023-06-10T12:24:20;30.70;99.90
18297;DHT22;18066;52.106;5.534;2023-06-10T12:26:47;31.20;99.90
18297;DHT22;18066;52.106;5.534;2023-06-10T12:29:21;31.30;99.90
18297;DHT22;18066;52.106;5.534;2023-06-10T12:31:58;31.60;99.90
18297;DHT22;18066;52.106;5.534;2023-06-10T12:34:34;31.00;99.90
18297;DHT22;18066;52.106;5.534;2023-06-10T12:37:02;31.00;99.90
18297;DHT22;18066;52.106;5.534;2023-06-10T12:39:30;30.80;99.90
18297;DHT22;18066;52.106;5.534;2023-06-10T12:41:57;30.90;99.90
18297;DHT22;18066;52.106;5.534;2023-06-10T12:44:34;31.10;99.90
18297;DHT22;18066;52.106;5.534;2023-06-10T12:47:07;31.20;99.90
18297;DHT22;18066;52.106;5.534;2023-06-10T12:49:36;31.10;99.90
18297;DHT22;18066;52.106;5.534;2023-06-10T12:52:04;31.00;99.90
18297;DHT22;18066;52.106;5.534;2023-06-10T12:54:31;31.10;99.90
18297;DHT22;18066;52.106;5.534;2023-06-10T12:56:58;31.30;99.90
18297;DHT22;18066;52.106;5.534;2023-06-10T12:59:26;32.00;99.90
18297;DHT22;18066;52.106;5.534;2023-06-10T13:01:54;31.50;99.90
18297;DHT22;18066;52.106;5.534;2023-06-10T13:04:21;31.70;99.90
18297;DHT22;18066;52.106;5.534;2023-06-10T13:06:49;31.60;99.90
18297;DHT22;18066;52.106;5.534;2023-06-10T13:09:16;31.80;99.90
18297;DHT22;18066;52.106;5.534;2023-06-10T13:11:43;32.00;99.90
18297;DHT22;18066;52.106;5.534;2023-06-10T13:14:10;31.70;99.90
18297;DHT22;18066;52.106;5.534;2023-06-10T13:16:38;31.90;99.90
18297;DHT22;18066;52.106;5.534;2023-06-10T13:19:05;31.90;99.90
18297;DHT22;18066;52.106;5.534;2023-06-10T13:21:32;32.20;99.90
18297;DHT22;18066;52.106;5.534;2023-06-10T13:24:01;31.70;99.90
18297;DHT22;18066;52.106;5.534;2023-06-10T13:26:28;31.50;99.90
18297;DHT22;18066;52.106;5.534;2023-06-10T13:28:55;31.60;99.90
18297;DHT22;18066;52.106;5.534;2023-06-10T13:31:22;31.70;99.90
18297;DHT22;18066;52.106;5.534;2023-06-10T13:33:49;31.40;99.90
18297;DHT22;18066;52.106;5.534;2023-06-10T13:36:16;31.40;99.90
18297;DHT22;18066;52.106;5.534;2023-06-10T13:38:42;31.70;99.90
18297;DHT22;18066;52.106;5.534;2023-06-10T13:41:11;31.50;99.90
18297;DHT22;18066;52.106;5.534;2023-06-10T13:43:38;31.80;99.90
18297;DHT22;18066;52.106;5.534;2023-06-10T13:46:04;31.80;99.90
18297;DHT22;18066;52.106;5.534;2023-06-10T13:48:31;32.50;99.90
18297;DHT22;18066;52.106;5.534;2023-06-10T13:50:58;32.60;99.90
18297;DHT22;18066;52.106;5.534;2023-06-10T13:53:26;32.70;99.90
18297;DHT22;18066;52.106;5.534;2023-06-10T13:55:52;32.80;99.90
18297;DHT22;18066;52.106;5.534;2023-06-10T13:58:21;32.60;99.90
18297;DHT22;18066;52.106;5.534;2023-06-10T14:00:47;32.60;99.90
18297;DHT22;18066;52.106;5.534;2023-06-10T14:03:14;32.70;99.90
18297;DHT22;18066;52.106;5.534;2023-06-10T14:05:41;33.20;99.60
18297;DHT22;18066;52.106;5.534;2023-06-10T14:08:08;32.70;97.20
18297;DHT22;18066;52.106;5.534;2023-06-10T14:10:35;32.70;98.00
18297;DHT22;18066;52.106;5.534;2023-06-10T14:13:02;33.40;99.90
18297;DHT22;18066;52.106;5.534;2023-06-10T14:15:30;33.40;99.30
18297;DHT22;18066;52.106;5.534;2023-06-10T14:17:58;33.60;96.80
18297;DHT22;18066;52.106;5.534;2023-06-10T14:20:24;33.90;97.30
18297;DHT22;18066;52.106;5.534;2023-06-10T14:22:52;34.30;97.80
18297;DHT22;18066;52.106;5.534;2023-06-10T14:25:19;34.70;95.90
18297;DHT22;18066;52.106;5.534;2023-06-10T14:27:45;35.40;98.30
18297;DHT22;18066;52.106;5.534;2023-06-10T14:30:13;35.90;96.10
18297;DHT22;18066;52.106;5.534;2023-06-10T14:32:41;35.80;94.80
18297;DHT22;18066;52.106;5.534;2023-06-10T14:35:08;35.80;93.40
18297;DHT22;18066;52.106;5.534;2023-06-10T14:37:35;35.80;95.50
18297;DHT22;18066;52.106;5.534;2023-06-10T14:40:03;35.90;93.20
18297;DHT22;18066;52.106;5.534;2023-06-10T14:42:30;36.50;92.20
18297;DHT22;18066;52.106;5.534;2023-06-10T14:44:57;37.20;93.60
18297;DHT22;18066;52.106;5.534;2023-06-10T14:47:24;37.50;93.00
18297;DHT22;18066;52.106;5.534;2023-06-10T14:49:53;37.70;90.80
18297;DHT22;18066;52.106;5.534;2023-06-10T14:52:20;37.50;89.30
18297;DHT22;18066;52.106;5.534;2023-06-10T14:54:46;37.60;91.40
18297;DHT22;18066;52.106;5.534;2023-06-10T14:57:13;37.10;90.10
18297;DHT22;18066;52.106;5.534;2023-06-10T14:59:40;37.90;91.80
18297;DHT22;18066;52.106;5.534;2023-06-10T15:02:07;38.60;90.10
18297;DHT22;18066;52.106;5.534;2023-06-10T15:04:34;38.50;89.70
18297;DHT22;18066;52.106;5.534;2023-06-10T15:07:02;39.00;88.60
18297;DHT22;18066;52.106;5.534;2023-06-10T15:09:29;39.20;86.30
18297;DHT22;18066;52.106;5.534;2023-06-10T15:11:57;40.00;91.80
18297;DHT22;18066;52.106;5.534;2023-06-10T15:14:25;40.30;91.30
18297;DHT22;18066;52.106;5.534;2023-06-10T15:16:52;41.40;91.50
18297;DHT22;18066;52.106;5.534;2023-06-10T15:19:19;42.20;87.60
18297;DHT22;18066;52.106;5.534;2023-06-10T15:21:46;42.40;81.40
18297;DHT22;18066;52.106;5.534;2023-06-10T15:24:14;42.20;80.20
18297;DHT22;18066;52.106;5.534;2023-06-10T15:26:41;42.10;83.00
18297;DHT22;18066;52.106;5.534;2023-06-10T15:29:08;42.00;79.20
18297;DHT22;18066;52.106;5.534;2023-06-10T15:31:35;42.10;78.70
18297;DHT22;18066;52.106;5.534;2023-06-10T15:34:02;42.30;81.70
18297;DHT22;18066;52.106;5.534;2023-06-10T15:36:29;43.20;83.30
18297;DHT22;18066;52.106;5.534;2023-06-10T15:39:00;42.30;76.00